createdAt,value
2023-05-17T04:16:48.598Z,17.86
2023-05-17T04:22:51.534Z,17.87
2023-05-17T04:28:56.592Z,17.97
2023-05-17T04:34:59.086Z,18.20
2023-05-17T04:41:06.241Z,18.25
2023-05-17T04:47:12.737Z,18.24
2023-05-17T04:53:16.050Z,18.20
2023-05-17T04:59:18.647Z,18.39
2023-05-17T05:05:25.040Z,18.56
2023-05-17T05:11:28.578Z,18.61
2023-05-17T05:17:31.782Z,18.59
2023-05-17T05:23:36.682Z,18.22
2023-05-17T05:29:43.265Z,17.98
2023-05-17T05:35:47.585Z,17.83
2023-05-17T05:41:50.159Z,17.99
2023-05-17T05:47:53.939Z,18.14
2023-05-17T05:53:57.508Z,18.26
2023-05-17T05:59:59.842Z,18.18
2023-05-17T06:06:03.979Z,18.60
2023-05-17T06:12:07.567Z,18.66
2023-05-17T06:18:14.009Z,18.70
2023-05-17T06:24:20.233Z,18.60
2023-05-17T06:30:22.684Z,18.96
2023-05-17T06:36:27.157Z,18.82
2023-05-17T06:42:34.903Z,18.69
2023-05-17T06:48:39.308Z,18.91
2023-05-17T06:54:42.582Z,18.77
2023-05-17T07:00:47.178Z,18.79
2023-05-17T07:06:50.542Z,19.11
2023-05-17T07:13:00.108Z,19.37
2023-05-17T07:19:06.576Z,19.35
2023-05-17T07:25:12.409Z,19.37
2023-05-17T07:31:16.362Z,19.50
2023-05-17T07:37:18.696Z,19.51
2023-05-17T07:43:25.017Z,19.98
2023-05-17T07:49:27.969Z,20.28
2023-05-17T07:55:33.161Z,20.92
2023-05-17T08:01:38.378Z,21.07
2023-05-17T08:07:41.637Z,21.24
2023-05-17T08:13:47.327Z,21.21
2023-05-17T08:19:51.643Z,20.95
2023-05-17T08:25:54.950Z,20.96
2023-05-17T08:31:58.321Z,20.91
2023-05-17T08:38:02.540Z,20.96
2023-05-17T08:44:07.143Z,20.92
2023-05-17T08:50:13.103Z,20.32
2023-05-17T08:56:24.048Z,19.93
2023-05-17T09:02:32.045Z,19.87
2023-05-17T09:08:35.891Z,19.81
2023-05-17T09:14:46.673Z,19.88
2023-05-17T09:21:02.117Z,20.04
2023-05-17T09:27:06.315Z,20.13
2023-05-17T09:33:14.064Z,19.95
2023-05-17T09:39:21.493Z,20.00
2023-05-17T09:45:25.038Z,19.97
2023-05-17T09:51:34.703Z,20.07
2023-05-17T09:57:41.105Z,20.31
2023-05-17T10:03:45.431Z,20.31
2023-05-17T10:09:54.623Z,20.68
2023-05-17T10:15:58.005Z,20.86
2023-05-17T10:22:18.932Z,20.84
2023-05-17T10:28:30.808Z,20.88
2023-05-17T10:34:37.091Z,20.92
2023-05-17T10:40:43.375Z,21.25
2023-05-17T10:46:57.202Z,21.22
2023-05-17T10:53:00.146Z,21.39
2023-05-17T10:59:30.034Z,21.55
2023-05-17T11:05:33.374Z,21.78
2023-05-17T11:11:37.246Z,21.85
2023-05-17T11:18:01.250Z,21.78
2023-05-17T11:24:06.231Z,21.62
2023-05-17T11:30:29.623Z,22.03
2023-05-17T11:36:56.068Z,22.53
2023-05-17T11:43:18.246Z,22.80
2023-05-17T11:49:34.349Z,22.97
2023-05-17T11:55:47.759Z,23.27
2023-05-17T12:01:53.391Z,23.18
2023-05-17T12:07:56.686Z,23.13
2023-05-17T12:14:01.542Z,22.98
2023-05-17T12:20:11.663Z,22.93
2023-05-17T12:26:16.098Z,22.73
2023-05-17T12:32:20.616Z,22.95
2023-05-17T12:38:28.228Z,23.41
2023-05-17T12:44:31.378Z,23.56
2023-05-17T12:50:36.163Z,23.85
2023-05-17T12:56:38.511Z,24.18
2023-05-17T13:02:45.320Z,24.10
2023-05-17T13:08:59.318Z,24.50
2023-05-17T13:15:01.616Z,24.72
2023-05-17T13:21:07.732Z,25.19
2023-05-17T13:27:15.100Z,25.39
2023-05-17T13:33:18.757Z,25.18
2023-05-17T13:39:22.226Z,25.15
2023-05-17T13:45:24.689Z,24.96
2023-05-17T13:51:27.233Z,24.72
2023-05-17T13:57:29.610Z,24.54
2023-05-17T14:03:33.206Z,24.46
2023-05-17T14:09:37.129Z,24.18
2023-05-17T14:15:41.083Z,24.10
2023-05-17T14:21:43.438Z,24.20
2023-05-17T14:27:45.794Z,24.40
2023-05-17T14:33:51.086Z,24.30
2023-05-17T14:40:05.771Z,24.19
2023-05-17T14:46:09.424Z,24.09
2023-05-17T14:52:11.728Z,23.96
2023-05-17T14:58:17.006Z,23.76
2023-05-17T15:04:20.745Z,23.71
2023-05-17T15:10:23.239Z,23.44
2023-05-17T15:16:28.289Z,23.28
2023-05-17T15:22:32.685Z,23.28
2023-05-17T15:28:38.678Z,23.29
2023-05-17T15:34:42.236Z,23.27
2023-05-17T15:40:57.010Z,23.26
2023-05-17T15:47:02.322Z,23.17
2023-05-17T15:53:05.421Z,23.05
2023-05-17T15:59:08.621Z,22.93
2023-05-17T16:05:11.000Z,22.86
2023-05-17T16:11:13.922Z,22.87
2023-05-17T16:17:17.958Z,22.76
2023-05-17T16:23:27.488Z,22.67
2023-05-17T16:29:29.815Z,22.55
2023-05-17T16:35:32.951Z,22.40
2023-05-17T16:41:38.938Z,22.28
2023-05-17T16:47:44.016Z,22.27
2023-05-17T16:53:50.304Z,22.24
2023-05-17T16:59:57.350Z,22.26
2023-05-17T17:06:07.024Z,22.21
2023-05-17T17:12:24.176Z,22.11
2023-05-17T17:18:29.730Z,21.99
2023-05-17T17:24:33.757Z,21.88
2023-05-17T17:30:36.110Z,21.86
2023-05-17T17:36:38.603Z,21.82
2023-05-17T17:42:43.977Z,21.76
2023-05-17T17:48:47.921Z,21.79
2023-05-17T17:54:50.758Z,21.68
2023-05-17T18:00:54.692Z,21.56
2023-05-17T18:07:01.408Z,21.41
2023-05-17T18:13:05.232Z,21.31
2023-05-17T18:19:08.324Z,21.25
2023-05-17T18:25:10.773Z,21.23
2023-05-17T18:31:16.226Z,21.13
2023-05-17T18:37:19.934Z,21.12
2023-05-17T18:43:24.621Z,21.06
2023-05-17T18:49:27.455Z,21.13
2023-05-17T18:55:33.414Z,21.09
2023-05-17T19:01:37.178Z,21.07
2023-05-17T19:07:39.473Z,21.00
2023-05-17T19:13:42.518Z,20.99
2023-05-17T19:19:46.030Z,20.99
2023-05-17T19:25:48.931Z,20.90
2023-05-17T19:31:51.469Z,20.80
2023-05-17T19:37:58.223Z,20.73
2023-05-17T19:44:00.533Z,20.61
2023-05-17T19:50:06.622Z,20.59
2023-05-17T19:56:10.795Z,20.43
2023-05-17T20:02:13.128Z,20.36
2023-05-17T20:08:16.755Z,20.38
2023-05-17T20:14:19.690Z,20.37
2023-05-17T20:20:22.336Z,20.36
2023-05-17T20:26:27.313Z,20.36
2023-05-17T20:32:29.679Z,20.37
2023-05-17T20:38:32.660Z,20.34
2023-05-17T20:44:37.818Z,20.31
2023-05-17T20:50:40.082Z,20.29
2023-05-17T20:56:42.424Z,20.34
2023-05-17T21:02:45.627Z,20.37
2023-05-17T21:08:49.212Z,20.29
2023-05-17T21:15:03.697Z,20.08
2023-05-17T21:21:12.971Z,19.96
2023-05-17T21:27:16.988Z,19.83
2023-05-17T21:33:19.303Z,19.73
2023-05-17T21:39:22.272Z,19.64
2023-05-17T21:45:24.985Z,19.61
2023-05-17T21:51:29.793Z,19.45
2023-05-17T21:57:36.471Z,19.38
2023-05-17T22:03:39.947Z,19.27
2023-05-17T22:09:45.713Z,19.26
2023-05-17T22:15:49.970Z,19.22
2023-05-17T22:21:54.314Z,19.23
2023-05-17T22:27:56.907Z,19.11
2023-05-17T22:33:59.150Z,18.99
2023-05-17T22:40:01.759Z,19.08
2023-05-17T22:46:04.883Z,19.04
2023-05-17T22:52:08.120Z,18.99
2023-05-17T22:58:12.858Z,19.11
2023-05-17T23:04:15.535Z,19.05
2023-05-17T23:10:18.071Z,18.90
2023-05-17T23:16:20.808Z,18.98
2023-05-17T23:22:25.670Z,18.96
2023-05-17T23:28:28.493Z,18.86
2023-05-17T23:34:32.085Z,18.97
2023-05-17T23:40:35.732Z,18.97
2023-05-17T23:46:38.593Z,18.88
2023-05-17T23:52:41.033Z,18.74
2023-05-17T23:58:45.718Z,18.59
